sensor_id;sensor_type;location;lat;lon;timestamp;P1;durP1;ratioP1;P2;durP2;ratioP2
23046;SDS011;11691;51.462;6.902;2023-02-26T00:00:58;4.40;;;1.37;;
23046;SDS011;11691;51.462;6.902;2023-02-26T00:03:25;5.87;;;1.60;;
23046;SDS011;11691;51.462;6.902;2023-02-26T00:05:51;4.70;;;1.57;;
23046;SDS011;11691;51.462;6.902;2023-02-26T00:08:17;4.77;;;1.27;;
23046;SDS011;11691;51.462;6.902;2023-02-26T00:10:43;7.27;;;1.43;;
23046;SDS011;11691;51.462;6.902;2023-02-26T00:13:09;4.20;;;1.50;;
23046;SDS011;11691;51.462;6.902;2023-02-26T00:15:36;3.13;;;1.40;;
23046;SDS011;11691;51.462;6.902;2023-02-26T00:18:06;7.03;;;1.30;;
23046;SDS011;11691;51.462;6.902;2023-02-26T00:20:35;4.00;;;1.70;;
23046;SDS011;11691;51.462;6.902;2023-02-26T00:23:01;3.23;;;1.37;;
23046;SDS011;11691;51.462;6.902;2023-02-26T00:25:27;5.40;;;1.47;;
23046;SDS011;11691;51.462;6.902;2023-02-26T00:27:53;6.87;;;1.80;;
23046;SDS011;11691;51.462;6.902;2023-02-26T00:30:19;10.40;;;1.50;;
23046;SDS011;11691;51.462;6.902;2023-02-26T00:32:45;6.07;;;1.63;;
23046;SDS011;11691;51.462;6.902;2023-02-26T00:35:12;7.03;;;1.53;;
23046;SDS011;11691;51.462;6.902;2023-02-26T00:42:37;5.13;;;1.93;;
23046;SDS011;11691;51.462;6.902;2023-02-26T00:45:03;6.83;;;1.47;;
23046;SDS011;11691;51.462;6.902;2023-02-26T00:47:45;6.83;;;2.10;;
23046;SDS011;11691;51.462;6.902;2023-02-26T00:50:31;4.10;;;1.57;;
23046;SDS011;11691;51.462;6.902;2023-02-26T00:55:26;4.43;;;1.83;;
23046;SDS011;11691;51.462;6.902;2023-02-26T00:57:52;3.47;;;1.43;;
23046;SDS011;11691;51.462;6.902;2023-02-26T01:00:18;2.27;;;1.13;;
23046;SDS011;11691;51.462;6.902;2023-02-26T01:02:44;5.60;;;1.30;;
23046;SDS011;11691;51.462;6.902;2023-02-26T01:05:11;3.47;;;1.70;;
23046;SDS011;11691;51.462;6.902;2023-02-26T01:07:48;3.73;;;1.53;;
23046;SDS011;11691;51.462;6.902;2023-02-26T01:10:18;4.97;;;1.33;;
23046;SDS011;11691;51.462;6.902;2023-02-26T01:12:44;4.47;;;1.40;;
23046;SDS011;11691;51.462;6.902;2023-02-26T01:15:11;5.43;;;1.57;;
23046;SDS011;11691;51.462;6.902;2023-02-26T01:17:49;6.50;;;1.77;;
23046;SDS011;11691;51.462;6.902;2023-02-26T01:20:17;4.80;;;1.30;;
23046;SDS011;11691;51.462;6.902;2023-02-26T01:25:11;4.47;;;1.50;;
23046;SDS011;11691;51.462;6.902;2023-02-26T01:27:44;3.70;;;1.10;;
23046;SDS011;11691;51.462;6.902;2023-02-26T01:30:10;4.87;;;1.50;;
23046;SDS011;11691;51.462;6.902;2023-02-26T01:32:41;2.13;;;1.10;;
23046;SDS011;11691;51.462;6.902;2023-02-26T01:38:00;6.20;;;1.40;;
23046;SDS011;11691;51.462;6.902;2023-02-26T01:40:33;9.77;;;1.57;;
23046;SDS011;11691;51.462;6.902;2023-02-26T01:43:09;4.00;;;1.40;;
23046;SDS011;11691;51.462;6.902;2023-02-26T01:45:46;5.50;;;1.20;;
23046;SDS011;11691;51.462;6.902;2023-02-26T01:51:16;3.37;;;1.33;;
23046;SDS011;11691;51.462;6.902;2023-02-26T01:53:43;6.97;;;1.70;;
23046;SDS011;11691;51.462;6.902;2023-02-26T01:56:15;4.23;;;1.40;;
23046;SDS011;11691;51.462;6.902;2023-02-26T01:58:43;3.17;;;1.50;;
23046;SDS011;11691;51.462;6.902;2023-02-26T02:01:11;4.47;;;1.37;;
23046;SDS011;11691;51.462;6.902;2023-02-26T02:03:37;7.20;;;1.30;;
23046;SDS011;11691;51.462;6.902;2023-02-26T02:06:07;4.70;;;1.70;;
23046;SDS011;11691;51.462;6.902;2023-02-26T02:08:38;5.37;;;1.37;;
23046;SDS011;11691;51.462;6.902;2023-02-26T02:11:06;4.53;;;1.53;;
23046;SDS011;11691;51.462;6.902;2023-02-26T02:16:11;4.80;;;1.40;;
23046;SDS011;11691;51.462;6.902;2023-02-26T02:27:10;4.07;;;1.20;;
23046;SDS011;11691;51.462;6.902;2023-02-26T02:35:01;4.10;;;1.30;;
23046;SDS011;11691;51.462;6.902;2023-02-26T02:37:30;2.30;;;1.03;;
23046;SDS011;11691;51.462;6.902;2023-02-26T02:40:01;8.97;;;2.20;;
23046;SDS011;11691;51.462;6.902;2023-02-26T02:42:34;3.93;;;1.37;;
23046;SDS011;11691;51.462;6.902;2023-02-26T02:45:46;2.73;;;1.37;;
23046;SDS011;11691;51.462;6.902;2023-02-26T02:47:53;4.00;;;1.37;;
23046;SDS011;11691;51.462;6.902;2023-02-26T02:53:07;2.27;;;1.33;;
23046;SDS011;11691;51.462;6.902;2023-02-26T02:55:59;8.80;;;1.27;;
23046;SDS011;11691;51.462;6.902;2023-02-26T02:58:31;1.33;;;0.80;;
23046;SDS011;11691;51.462;6.902;2023-02-26T03:01:02;2.43;;;1.10;;
23046;SDS011;11691;51.462;6.902;2023-02-26T03:03:48;4.27;;;1.10;;
23046;SDS011;11691;51.462;6.902;2023-02-26T03:06:15;4.20;;;1.20;;
23046;SDS011;11691;51.462;6.902;2023-02-26T03:08:42;3.17;;;1.00;;
23046;SDS011;11691;51.462;6.902;2023-02-26T03:11:08;2.87;;;0.93;;
23046;SDS011;11691;51.462;6.902;2023-02-26T03:13:34;4.00;;;1.50;;
23046;SDS011;11691;51.462;6.902;2023-02-26T03:16:08;3.70;;;0.90;;
23046;SDS011;11691;51.462;6.902;2023-02-26T03:21:07;3.67;;;0.90;;
23046;SDS011;11691;51.462;6.902;2023-02-26T03:23:37;2.93;;;1.00;;
23046;SDS011;11691;51.462;6.902;2023-02-26T03:26:13;3.93;;;1.07;;
23046;SDS011;11691;51.462;6.902;2023-02-26T03:31:17;2.40;;;1.03;;
23046;SDS011;11691;51.462;6.902;2023-02-26T03:34:06;2.30;;;0.77;;
23046;SDS011;11691;51.462;6.902;2023-02-26T03:36:38;3.57;;;1.00;;
23046;SDS011;11691;51.462;6.902;2023-02-26T03:44:36;6.10;;;1.00;;
23046;SDS011;11691;51.462;6.902;2023-02-26T03:47:19;2.73;;;1.03;;
23046;SDS011;11691;51.462;6.902;2023-02-26T03:49:52;3.73;;;0.97;;
23046;SDS011;11691;51.462;6.902;2023-02-26T03:52:25;2.07;;;0.77;;
23046;SDS011;11691;51.462;6.902;2023-02-26T03:55:00;5.03;;;1.10;;
23046;SDS011;11691;51.462;6.902;2023-02-26T03:57:27;2.43;;;1.07;;
23046;SDS011;11691;51.462;6.902;2023-02-26T03:59:53;1.93;;;1.00;;
23046;SDS011;11691;51.462;6.902;2023-02-26T04:05:02;3.20;;;1.00;;
23046;SDS011;11691;51.462;6.902;2023-02-26T04:07:30;2.30;;;1.10;;
23046;SDS011;11691;51.462;6.902;2023-02-26T04:09:56;4.17;;;0.90;;
23046;SDS011;11691;51.462;6.902;2023-02-26T04:12:23;2.03;;;0.87;;
23046;SDS011;11691;51.462;6.902;2023-02-26T04:14:50;2.80;;;1.10;;
23046;SDS011;11691;51.462;6.902;2023-02-26T04:17:16;5.80;;;0.93;;
23046;SDS011;11691;51.462;6.902;2023-02-26T04:19:42;3.83;;;1.00;;
23046;SDS011;11691;51.462;6.902;2023-02-26T04:22:08;3.93;;;1.10;;
23046;SDS011;11691;51.462;6.902;2023-02-26T04:24:34;2.03;;;1.00;;
23046;SDS011;11691;51.462;6.902;2023-02-26T04:27:00;7.10;;;1.03;;
23046;SDS011;11691;51.462;6.902;2023-02-26T04:29:26;3.87;;;0.93;;
23046;SDS011;11691;51.462;6.902;2023-02-26T04:31:53;4.60;;;1.00;;
23046;SDS011;11691;51.462;6.902;2023-02-26T04:34:19;3.80;;;0.90;;
23046;SDS011;11691;51.462;6.902;2023-02-26T04:36:45;2.37;;;0.90;;
23046;SDS011;11691;51.462;6.902;2023-02-26T04:39:11;3.60;;;0.73;;
23046;SDS011;11691;51.462;6.902;2023-02-26T04:41:37;2.83;;;0.93;;
23046;SDS011;11691;51.462;6.902;2023-02-26T04:44:04;3.40;;;1.00;;
23046;SDS011;11691;51.462;6.902;2023-02-26T04:46:30;1.77;;;0.70;;
23046;SDS011;11691;51.462;6.902;2023-02-26T04:48:56;1.43;;;0.70;;
23046;SDS011;11691;51.462;6.902;2023-02-26T04:51:23;3.03;;;0.80;;
23046;SDS011;11691;51.462;6.902;2023-02-26T04:53:49;3.10;;;0.60;;
23046;SDS011;11691;51.462;6.902;2023-02-26T04:56:15;3.60;;;0.83;;
23046;SDS011;11691;51.462;6.902;2023-02-26T04:58:41;2.30;;;1.00;;
23046;SDS011;11691;51.462;6.902;2023-02-26T05:01:07;3.80;;;1.03;;
23046;SDS011;11691;51.462;6.902;2023-02-26T05:03:33;3.77;;;0.73;;
23046;SDS011;11691;51.462;6.902;2023-02-26T05:05:59;4.80;;;1.03;;
23046;SDS011;11691;51.462;6.902;2023-02-26T05:08:25;2.23;;;0.70;;
23046;SDS011;11691;51.462;6.902;2023-02-26T05:10:51;3.13;;;0.90;;
23046;SDS011;11691;51.462;6.902;2023-02-26T05:13:18;4.60;;;1.20;;
23046;SDS011;11691;51.462;6.902;2023-02-26T05:15:44;6.47;;;1.10;;
23046;SDS011;11691;51.462;6.902;2023-02-26T05:18:10;2.00;;;0.80;;
23046;SDS011;11691;51.462;6.902;2023-02-26T05:20:36;1.13;;;0.70;;
23046;SDS011;11691;51.462;6.902;2023-02-26T05:23:02;1.37;;;0.80;;
23046;SDS011;11691;51.462;6.902;2023-02-26T05:25:28;3.30;;;0.90;;
23046;SDS011;11691;51.462;6.902;2023-02-26T05:27:54;5.07;;;1.00;;
23046;SDS011;11691;51.462;6.902;2023-02-26T05:30:20;1.20;;;0.80;;
23046;SDS011;11691;51.462;6.902;2023-02-26T05:32:47;2.50;;;0.93;;
23046;SDS011;11691;51.462;6.902;2023-02-26T05:35:13;3.10;;;0.90;;
23046;SDS011;11691;51.462;6.902;2023-02-26T05:37:39;3.93;;;1.10;;
23046;SDS011;11691;51.462;6.902;2023-02-26T05:40:05;2.53;;;1.00;;
23046;SDS011;11691;51.462;6.902;2023-02-26T05:42:35;1.50;;;0.80;;
23046;SDS011;11691;51.462;6.902;2023-02-26T05:45:02;4.80;;;1.00;;
23046;SDS011;11691;51.462;6.902;2023-02-26T05:47:29;4.20;;;0.70;;
23046;SDS011;11691;51.462;6.902;2023-02-26T05:49:55;2.47;;;0.63;;
23046;SDS011;11691;51.462;6.902;2023-02-26T05:52:21;3.10;;;0.90;;
23046;SDS011;11691;51.462;6.902;2023-02-26T05:54:47;2.20;;;0.90;;
23046;SDS011;11691;51.462;6.902;2023-02-26T05:57:14;3.07;;;0.93;;
23046;SDS011;11691;51.462;6.902;2023-02-26T05:59:40;3.27;;;0.80;;
23046;SDS011;11691;51.462;6.902;2023-02-26T06:02:06;3.17;;;1.00;;
23046;SDS011;11691;51.462;6.902;2023-02-26T06:04:32;6.50;;;0.80;;
23046;SDS011;11691;51.462;6.902;2023-02-26T06:06:58;6.37;;;0.97;;
23046;SDS011;11691;51.462;6.902;2023-02-26T06:09:24;3.33;;;0.80;;
23046;SDS011;11691;51.462;6.902;2023-02-26T06:11:50;5.33;;;1.00;;
23046;SDS011;11691;51.462;6.902;2023-02-26T06:14:16;3.67;;;1.03;;
23046;SDS011;11691;51.462;6.902;2023-02-26T06:16:42;4.77;;;1.07;;
23046;SDS011;11691;51.462;6.902;2023-02-26T06:19:08;4.30;;;1.27;;
23046;SDS011;11691;51.462;6.902;2023-02-26T06:21:34;1.80;;;0.90;;
23046;SDS011;11691;51.462;6.902;2023-02-26T06:24:00;4.03;;;1.17;;
23046;SDS011;11691;51.462;6.902;2023-02-26T06:26:26;3.27;;;0.80;;
23046;SDS011;11691;51.462;6.902;2023-02-26T06:28:52;2.90;;;0.90;;
23046;SDS011;11691;51.462;6.902;2023-02-26T06:31:18;1.90;;;1.00;;
23046;SDS011;11691;51.462;6.902;2023-02-26T06:33:44;2.50;;;1.10;;
23046;SDS011;11691;51.462;6.902;2023-02-26T06:36:10;7.10;;;1.73;;
23046;SDS011;11691;51.462;6.902;2023-02-26T06:38:36;5.43;;;1.03;;
23046;SDS011;11691;51.462;6.902;2023-02-26T06:41:02;6.90;;;2.13;;
23046;SDS011;11691;51.462;6.902;2023-02-26T06:43:28;5.07;;;1.87;;
23046;SDS011;11691;51.462;6.902;2023-02-26T06:45:57;6.03;;;1.93;;
23046;SDS011;11691;51.462;6.902;2023-02-26T06:48:24;3.40;;;1.30;;
23046;SDS011;11691;51.462;6.902;2023-02-26T06:50:50;2.63;;;1.20;;
23046;SDS011;11691;51.462;6.902;2023-02-26T06:53:16;5.63;;;1.57;;
23046;SDS011;11691;51.462;6.902;2023-02-26T06:55:43;4.77;;;1.70;;
23046;SDS011;11691;51.462;6.902;2023-02-26T06:58:10;4.17;;;1.17;;
23046;SDS011;11691;51.462;6.902;2023-02-26T07:00:36;3.17;;;1.20;;
23046;SDS011;11691;51.462;6.902;2023-02-26T07:03:02;4.53;;;1.20;;
23046;SDS011;11691;51.462;6.902;2023-02-26T07:05:29;2.70;;;1.20;;
23046;SDS011;11691;51.462;6.902;2023-02-26T07:07:55;3.17;;;1.30;;
23046;SDS011;11691;51.462;6.902;2023-02-26T07:10:21;6.93;;;1.33;;
23046;SDS011;11691;51.462;6.902;2023-02-26T07:12:49;4.67;;;1.27;;
23046;SDS011;11691;51.462;6.902;2023-02-26T07:15:15;4.90;;;1.47;;
23046;SDS011;11691;51.462;6.902;2023-02-26T07:17:41;4.17;;;0.90;;
23046;SDS011;11691;51.462;6.902;2023-02-26T07:20:08;5.33;;;0.93;;
23046;SDS011;11691;51.462;6.902;2023-02-26T07:22:35;3.43;;;0.93;;
23046;SDS011;11691;51.462;6.902;2023-02-26T07:25:02;4.83;;;1.20;;
23046;SDS011;11691;51.462;6.902;2023-02-26T07:27:28;1.57;;;0.90;;
23046;SDS011;11691;51.462;6.902;2023-02-26T07:29:54;6.80;;;1.40;;
23046;SDS011;11691;51.462;6.902;2023-02-26T07:32:20;3.20;;;0.93;;
23046;SDS011;11691;51.462;6.902;2023-02-26T07:34:46;3.13;;;1.03;;
23046;SDS011;11691;51.462;6.902;2023-02-26T07:37:12;6.30;;;0.97;;
23046;SDS011;11691;51.462;6.902;2023-02-26T07:39:38;5.73;;;1.03;;
23046;SDS011;11691;51.462;6.902;2023-02-26T07:42:04;4.87;;;1.30;;
23046;SDS011;11691;51.462;6.902;2023-02-26T07:44:30;5.23;;;0.83;;
23046;SDS011;11691;51.462;6.902;2023-02-26T07:46:56;3.53;;;1.07;;
23046;SDS011;11691;51.462;6.902;2023-02-26T07:49:22;2.67;;;1.07;;
23046;SDS011;11691;51.462;6.902;2023-02-26T07:51:49;2.10;;;0.87;;
23046;SDS011;11691;51.462;6.902;2023-02-26T07:54:15;6.77;;;0.90;;
23046;SDS011;11691;51.462;6.902;2023-02-26T07:56:41;3.20;;;1.17;;
23046;SDS011;11691;51.462;6.902;2023-02-26T07:59:07;3.13;;;0.87;;
23046;SDS011;11691;51.462;6.902;2023-02-26T08:01:34;3.77;;;1.30;;
23046;SDS011;11691;51.462;6.902;2023-02-26T08:04:00;3.27;;;0.83;;
23046;SDS011;11691;51.462;6.902;2023-02-26T08:06:26;3.67;;;1.03;;
23046;SDS011;11691;51.462;6.902;2023-02-26T08:08:52;4.83;;;1.43;;
23046;SDS011;11691;51.462;6.902;2023-02-26T08:11:18;7.57;;;1.37;;
23046;SDS011;11691;51.462;6.902;2023-02-26T08:13:44;5.40;;;1.37;;
23046;SDS011;11691;51.462;6.902;2023-02-26T08:16:10;2.73;;;0.87;;
23046;SDS011;11691;51.462;6.902;2023-02-26T08:18:36;5.23;;;1.03;;
23046;SDS011;11691;51.462;6.902;2023-02-26T08:21:02;2.33;;;0.83;;
23046;SDS011;11691;51.462;6.902;2023-02-26T08:23:28;6.77;;;1.10;;
23046;SDS011;11691;51.462;6.902;2023-02-26T08:26:01;2.13;;;0.83;;
23046;SDS011;11691;51.462;6.902;2023-02-26T08:28:31;3.70;;;1.00;;
23046;SDS011;11691;51.462;6.902;2023-02-26T08:30:57;1.97;;;1.03;;
23046;SDS011;11691;51.462;6.902;2023-02-26T08:33:23;3.47;;;0.90;;
23046;SDS011;11691;51.462;6.902;2023-02-26T08:35:49;1.90;;;0.97;;
23046;SDS011;11691;51.462;6.902;2023-02-26T08:38:16;3.10;;;0.80;;
23046;SDS011;11691;51.462;6.902;2023-02-26T08:40:42;5.20;;;0.90;;
23046;SDS011;11691;51.462;6.902;2023-02-26T08:43:08;5.90;;;1.37;;
23046;SDS011;11691;51.462;6.902;2023-02-26T08:45:35;3.30;;;0.93;;
23046;SDS011;11691;51.462;6.902;2023-02-26T08:48:02;2.20;;;0.87;;
23046;SDS011;11691;51.462;6.902;2023-02-26T08:50:28;2.83;;;0.70;;
23046;SDS011;11691;51.462;6.902;2023-02-26T08:52:54;1.13;;;0.67;;
23046;SDS011;11691;51.462;6.902;2023-02-26T08:55:20;3.57;;;1.20;;
23046;SDS011;11691;51.462;6.902;2023-02-26T08:57:47;3.80;;;0.60;;
23046;SDS011;11691;51.462;6.902;2023-02-26T09:00:13;3.27;;;0.80;;
23046;SDS011;11691;51.462;6.902;2023-02-26T09:02:43;2.47;;;0.70;;
23046;SDS011;11691;51.462;6.902;2023-02-26T09:05:09;3.43;;;1.03;;
23046;SDS011;11691;51.462;6.902;2023-02-26T09:07:36;3.43;;;0.80;;
23046;SDS011;11691;51.462;6.902;2023-02-26T09:10:02;4.07;;;1.00;;
23046;SDS011;11691;51.462;6.902;2023-02-26T09:12:29;1.97;;;0.90;;
23046;SDS011;11691;51.462;6.902;2023-02-26T09:14:55;1.53;;;0.70;;
23046;SDS011;11691;51.462;6.902;2023-02-26T09:17:23;3.23;;;0.67;;
23046;SDS011;11691;51.462;6.902;2023-02-26T09:19:49;3.33;;;0.90;;
23046;SDS011;11691;51.462;6.902;2023-02-26T09:22:15;2.13;;;0.80;;
23046;SDS011;11691;51.462;6.902;2023-02-26T09:24:41;2.90;;;0.90;;
23046;SDS011;11691;51.462;6.902;2023-02-26T09:27:07;2.70;;;1.00;;
23046;SDS011;11691;51.462;6.902;2023-02-26T09:29:33;3.13;;;1.05;;
23046;SDS011;11691;51.462;6.902;2023-02-26T09:31:59;2.10;;;0.80;;
23046;SDS011;11691;51.462;6.902;2023-02-26T09:34:26;2.90;;;1.05;;
23046;SDS011;11691;51.462;6.902;2023-02-26T09:36:52;2.00;;;0.90;;
23046;SDS011;11691;51.462;6.902;2023-02-26T09:39:18;2.85;;;0.90;;
23046;SDS011;11691;51.462;6.902;2023-02-26T09:41:48;2.45;;;0.70;;
23046;SDS011;11691;51.462;6.902;2023-02-26T09:44:23;3.95;;;1.35;;
23046;SDS011;11691;51.462;6.902;2023-02-26T09:49:33;3.15;;;0.90;;
23046;SDS011;11691;51.462;6.902;2023-02-26T09:54:42;1.55;;;0.60;;
23046;SDS011;11691;51.462;6.902;2023-02-26T09:57:14;5.05;;;0.73;;
23046;SDS011;11691;51.462;6.902;2023-02-26T09:59:50;1.85;;;0.68;;
23046;SDS011;11691;51.462;6.902;2023-02-26T10:07:36;3.22;;;0.93;;
23046;SDS011;11691;51.462;6.902;2023-02-26T10:10:27;1.95;;;0.50;;
23046;SDS011;11691;51.462;6.902;2023-02-26T10:12:55;3.03;;;0.73;;
23046;SDS011;11691;51.462;6.902;2023-02-26T10:15:22;2.00;;;0.70;;
23046;SDS011;11691;51.462;6.902;2023-02-26T10:18:04;2.90;;;0.80;;
23046;SDS011;11691;51.462;6.902;2023-02-26T10:34:04;2.23;;;0.40;;
23046;SDS011;11691;51.462;6.902;2023-02-26T10:36:42;3.15;;;0.88;;
23046;SDS011;11691;51.462;6.902;2023-02-26T10:41:54;4.35;;;1.02;;
23046;SDS011;11691;51.462;6.902;2023-02-26T10:44:30;3.63;;;0.75;;
23046;SDS011;11691;51.462;6.902;2023-02-26T10:52:14;4.18;;;1.02;;
23046;SDS011;11691;51.462;6.902;2023-02-26T10:54:47;3.08;;;0.95;;
23046;SDS011;11691;51.462;6.902;2023-02-26T10:57:25;1.95;;;0.70;;
23046;SDS011;11691;51.462;6.902;2023-02-26T10:59:51;1.98;;;0.80;;
23046;SDS011;11691;51.462;6.902;2023-02-26T11:02:31;2.47;;;0.68;;
23046;SDS011;11691;51.462;6.902;2023-02-26T11:05:00;1.77;;;0.77;;
23046;SDS011;11691;51.462;6.902;2023-02-26T11:07:26;1.80;;;0.55;;
23046;SDS011;11691;51.462;6.902;2023-02-26T11:09:55;1.25;;;0.55;;
23046;SDS011;11691;51.462;6.902;2023-02-26T11:12:21;2.85;;;0.70;;
23046;SDS011;11691;51.462;6.902;2023-02-26T11:14:48;2.47;;;0.60;;
23046;SDS011;11691;51.462;6.902;2023-02-26T11:17:25;2.85;;;0.75;;
23046;SDS011;11691;51.462;6.902;2023-02-26T11:22:53;1.38;;;0.60;;
23046;SDS011;11691;51.462;6.902;2023-02-26T11:25:22;4.10;;;0.73;;
23046;SDS011;11691;51.462;6.902;2023-02-26T11:27:51;1.90;;;0.60;;
23046;SDS011;11691;51.462;6.902;2023-02-26T11:30:19;2.35;;;0.65;;
23046;SDS011;11691;51.462;6.902;2023-02-26T11:32:49;2.35;;;0.70;;
23046;SDS011;11691;51.462;6.902;2023-02-26T11:35:16;2.40;;;0.77;;
23046;SDS011;11691;51.462;6.902;2023-02-26T11:37:58;2.17;;;0.80;;
23046;SDS011;11691;51.462;6.902;2023-02-26T11:43:03;2.00;;;0.63;;
23046;SDS011;11691;51.462;6.902;2023-02-26T11:45:38;1.08;;;0.40;;
23046;SDS011;11691;51.462;6.902;2023-02-26T11:48:05;3.15;;;0.80;;
23046;SDS011;11691;51.462;6.902;2023-02-26T11:50:41;0.70;;;0.50;;
23046;SDS011;11691;51.462;6.902;2023-02-26T11:53:17;3.13;;;0.70;;
23046;SDS011;11691;51.462;6.902;2023-02-26T11:55:45;1.63;;;0.43;;
23046;SDS011;11691;51.462;6.902;2023-02-26T11:58:20;2.65;;;0.80;;
23046;SDS011;11691;51.462;6.902;2023-02-26T12:00:47;1.40;;;0.77;;
23046;SDS011;11691;51.462;6.902;2023-02-26T12:03:24;1.60;;;0.50;;
23046;SDS011;11691;51.462;6.902;2023-02-26T12:05:52;2.50;;;0.70;;
23046;SDS011;11691;51.462;6.902;2023-02-26T12:08:35;1.20;;;0.63;;
23046;SDS011;11691;51.462;6.902;2023-02-26T12:13:54;2.25;;;0.70;;
23046;SDS011;11691;51.462;6.902;2023-02-26T12:16:49;0.98;;;0.65;;
23046;SDS011;11691;51.462;6.902;2023-02-26T12:30:56;1.73;;;0.60;;
23046;SDS011;11691;51.462;6.902;2023-02-26T12:38:29;2.35;;;0.80;;
23046;SDS011;11691;51.462;6.902;2023-02-26T12:41:09;1.77;;;0.57;;
23046;SDS011;11691;51.462;6.902;2023-02-26T12:55:02;0.55;;;0.38;;
23046;SDS011;11691;51.462;6.902;2023-02-26T13:00:20;1.30;;;0.70;;
23046;SDS011;11691;51.462;6.902;2023-02-26T13:10:39;1.53;;;0.70;;
23046;SDS011;11691;51.462;6.902;2023-02-26T13:21:02;1.40;;;0.67;;
23046;SDS011;11691;51.462;6.902;2023-02-26T13:23:34;1.47;;;0.87;;
23046;SDS011;11691;51.462;6.902;2023-02-26T13:26:02;1.33;;;0.80;;
23046;SDS011;11691;51.462;6.902;2023-02-26T13:31:21;1.00;;;0.70;;
23046;SDS011;11691;51.462;6.902;2023-02-26T13:34:00;1.53;;;0.50;;
23046;SDS011;11691;51.462;6.902;2023-02-26T13:36:28;1.80;;;0.60;;
23046;SDS011;11691;51.462;6.902;2023-02-26T13:44:14;1.70;;;0.53;;
23046;SDS011;11691;51.462;6.902;2023-02-26T13:46:47;1.70;;;0.77;;
23046;SDS011;11691;51.462;6.902;2023-02-26T13:51:57;1.30;;;0.60;;
23046;SDS011;11691;51.462;6.902;2023-02-26T13:54:27;1.93;;;0.80;;
23046;SDS011;11691;51.462;6.902;2023-02-26T13:59:31;3.23;;;0.77;;
23046;SDS011;11691;51.462;6.902;2023-02-26T14:02:02;2.40;;;0.57;;
23046;SDS011;11691;51.462;6.902;2023-02-26T14:04:50;3.53;;;0.80;;
23046;SDS011;11691;51.462;6.902;2023-02-26T14:10:28;1.83;;;0.80;;
23046;SDS011;11691;51.462;6.902;2023-02-26T14:13:06;2.43;;;0.90;;
23046;SDS011;11691;51.462;6.902;2023-02-26T14:26:27;1.63;;;0.80;;
23046;SDS011;11691;51.462;6.902;2023-02-26T14:28:55;2.30;;;0.60;;
23046;SDS011;11691;51.462;6.902;2023-02-26T14:34:22;2.03;;;0.93;;
23046;SDS011;11691;51.462;6.902;2023-02-26T14:36:52;2.37;;;0.70;;
23046;SDS011;11691;51.462;6.902;2023-02-26T14:39:22;2.73;;;0.80;;
23046;SDS011;11691;51.462;6.902;2023-02-26T14:41:49;1.27;;;0.60;;
23046;SDS011;11691;51.462;6.902;2023-02-26T14:44:17;1.00;;;0.50;;
23046;SDS011;11691;51.462;6.902;2023-02-26T14:46:45;2.50;;;0.70;;
23046;SDS011;11691;51.462;6.902;2023-02-26T14:49:17;4.37;;;0.83;;
23046;SDS011;11691;51.462;6.902;2023-02-26T14:51:51;0.83;;;0.60;;
23046;SDS011;11691;51.462;6.902;2023-02-26T14:57:29;1.83;;;0.77;;
23046;SDS011;11691;51.462;6.902;2023-02-26T15:02:46;2.40;;;0.80;;
23046;SDS011;11691;51.462;6.902;2023-02-26T15:11:02;1.63;;;0.80;;
23046;SDS011;11691;51.462;6.902;2023-02-26T15:18:57;1.30;;;0.70;;
23046;SDS011;11691;51.462;6.902;2023-02-26T15:21:56;1.50;;;0.70;;
23046;SDS011;11691;51.462;6.902;2023-02-26T15:24:24;2.50;;;0.60;;
23046;SDS011;11691;51.462;6.902;2023-02-26T15:26:52;2.00;;;0.60;;
23046;SDS011;11691;51.462;6.902;2023-02-26T15:29:23;2.00;;;0.70;;
23046;SDS011;11691;51.462;6.902;2023-02-26T15:31:54;2.20;;;0.80;;
23046;SDS011;11691;51.462;6.902;2023-02-26T15:34:25;2.13;;;0.73;;
23046;SDS011;11691;51.462;6.902;2023-02-26T15:36:51;0.90;;;0.50;;
23046;SDS011;11691;51.462;6.902;2023-02-26T15:39:22;0.70;;;0.63;;
23046;SDS011;11691;51.462;6.902;2023-02-26T15:41:48;1.50;;;0.80;;
23046;SDS011;11691;51.462;6.902;2023-02-26T15:44:20;2.20;;;0.80;;
23046;SDS011;11691;51.462;6.902;2023-02-26T15:46:49;3.43;;;0.87;;
23046;SDS011;11691;51.462;6.902;2023-02-26T15:49:27;3.30;;;1.40;;
23046;SDS011;11691;51.462;6.902;2023-02-26T15:51:54;2.90;;;1.00;;
23046;SDS011;11691;51.462;6.902;2023-02-26T15:54:22;1.33;;;0.70;;
23046;SDS011;11691;51.462;6.902;2023-02-26T15:56:49;3.50;;;0.83;;
23046;SDS011;11691;51.462;6.902;2023-02-26T15:59:20;2.53;;;0.87;;
23046;SDS011;11691;51.462;6.902;2023-02-26T16:01:47;1.17;;;0.67;;
23046;SDS011;11691;51.462;6.902;2023-02-26T16:04:15;1.37;;;0.70;;
23046;SDS011;11691;51.462;6.902;2023-02-26T16:06:47;2.30;;;0.83;;
23046;SDS011;11691;51.462;6.902;2023-02-26T16:09:18;3.43;;;0.90;;
23046;SDS011;11691;51.462;6.902;2023-02-26T16:11:44;1.97;;;0.70;;
23046;SDS011;11691;51.462;6.902;2023-02-26T16:14:17;4.53;;;1.00;;
23046;SDS011;11691;51.462;6.902;2023-02-26T16:16:49;4.70;;;0.97;;
23046;SDS011;11691;51.462;6.902;2023-02-26T16:19:18;1.30;;;0.87;;
23046;SDS011;11691;51.462;6.902;2023-02-26T16:21:45;2.10;;;0.80;;
23046;SDS011;11691;51.462;6.902;2023-02-26T16:24:13;2.53;;;0.80;;
23046;SDS011;11691;51.462;6.902;2023-02-26T16:26:46;2.73;;;1.07;;
23046;SDS011;11691;51.462;6.902;2023-02-26T16:29:19;1.07;;;0.70;;
23046;SDS011;11691;51.462;6.902;2023-02-26T16:31:46;3.07;;;0.90;;
23046;SDS011;11691;51.462;6.902;2023-02-26T16:34:21;2.50;;;1.00;;
23046;SDS011;11691;51.462;6.902;2023-02-26T16:36:47;2.17;;;1.03;;
23046;SDS011;11691;51.462;6.902;2023-02-26T16:39:25;2.30;;;0.83;;
23046;SDS011;11691;51.462;6.902;2023-02-26T16:42:08;2.50;;;0.70;;
23046;SDS011;11691;51.462;6.902;2023-02-26T16:47:40;3.20;;;1.10;;
23046;SDS011;11691;51.462;6.902;2023-02-26T16:50:12;2.80;;;1.30;;
23046;SDS011;11691;51.462;6.902;2023-02-26T16:52:42;2.70;;;1.00;;
23046;SDS011;11691;51.462;6.902;2023-02-26T16:55:09;4.77;;;0.90;;
23046;SDS011;11691;51.462;6.902;2023-02-26T16:57:42;1.60;;;0.80;;
23046;SDS011;11691;51.462;6.902;2023-02-26T17:00:14;3.27;;;0.90;;
23046;SDS011;11691;51.462;6.902;2023-02-26T17:02:53;2.33;;;1.10;;
23046;SDS011;11691;51.462;6.902;2023-02-26T17:05:21;4.03;;;1.20;;
23046;SDS011;11691;51.462;6.902;2023-02-26T17:07:58;2.77;;;1.07;;
23046;SDS011;11691;51.462;6.902;2023-02-26T17:13:00;1.87;;;1.33;;
23046;SDS011;11691;51.462;6.902;2023-02-26T17:15:36;1.50;;;0.90;;
23046;SDS011;11691;51.462;6.902;2023-02-26T17:18:04;3.33;;;1.40;;
23046;SDS011;11691;51.462;6.902;2023-02-26T17:20:32;1.90;;;1.20;;
23046;SDS011;11691;51.462;6.902;2023-02-26T17:22:59;4.83;;;1.40;;
23046;SDS011;11691;51.462;6.902;2023-02-26T17:25:29;6.40;;;1.70;;
23046;SDS011;11691;51.462;6.902;2023-02-26T17:30:25;2.70;;;1.23;;
23046;SDS011;11691;51.462;6.902;2023-02-26T17:32:55;1.40;;;1.00;;
23046;SDS011;11691;51.462;6.902;2023-02-26T17:35:22;3.07;;;1.27;;
23046;SDS011;11691;51.462;6.902;2023-02-26T17:37:48;2.50;;;1.40;;
23046;SDS011;11691;51.462;6.902;2023-02-26T17:40:24;2.40;;;1.20;;
23046;SDS011;11691;51.462;6.902;2023-02-26T17:42:50;4.57;;;1.47;;
23046;SDS011;11691;51.462;6.902;2023-02-26T17:45:16;4.07;;;1.77;;
23046;SDS011;11691;51.462;6.902;2023-02-26T17:47:42;2.30;;;1.37;;
23046;SDS011;11691;51.462;6.902;2023-02-26T17:53:00;1.77;;;1.30;;
23046;SDS011;11691;51.462;6.902;2023-02-26T17:55:27;3.03;;;1.37;;
23046;SDS011;11691;51.462;6.902;2023-02-26T17:57:54;2.60;;;1.60;;
23046;SDS011;11691;51.462;6.902;2023-02-26T18:00:20;2.70;;;1.67;;
23046;SDS011;11691;51.462;6.902;2023-02-26T18:02:47;4.10;;;1.47;;
23046;SDS011;11691;51.462;6.902;2023-02-26T18:05:15;6.50;;;1.50;;
23046;SDS011;11691;51.462;6.902;2023-02-26T18:07:41;4.77;;;2.17;;
23046;SDS011;11691;51.462;6.902;2023-02-26T18:10:10;3.27;;;1.30;;
23046;SDS011;11691;51.462;6.902;2023-02-26T18:12:41;4.70;;;1.83;;